sensor_id;sensor_type;location;lat;lon;timestamp;temperature;humidity
12164;DHT22;6145;50.192;10.064;2023-09-18T05:01:45;19.10;92.50
12164;DHT22;6145;50.192;10.064;2023-09-18T05:04:11;19.10;92.70
12164;DHT22;6145;50.192;10.064;2023-09-18T05:06:39;19.10;92.70
12164;DHT22;6145;50.192;10.064;2023-09-18T05:09:07;19.10;92.80
12164;DHT22;6145;50.192;10.064;2023-09-18T05:11:34;19.00;92.90
12164;DHT22;6145;50.192;10.064;2023-09-18T05:14:02;19.00;93.00
12164;DHT22;6145;50.192;10.064;2023-09-18T05:16:29;19.00;93.00
12164;DHT22;6145;50.192;10.064;2023-09-18T05:18:57;19.00;92.80
12164;DHT22;6145;50.192;10.064;2023-09-18T05:21:25;19.10;92.80
12164;DHT22;6145;50.192;10.064;2023-09-18T05:23:52;19.10;92.70
12164;DHT22;6145;50.192;10.064;2023-09-18T05:26:21;19.10;92.60
12164;DHT22;6145;50.192;10.064;2023-09-18T05:28:50;19.20;92.80
12164;DHT22;6145;50.192;10.064;2023-09-18T05:31:17;19.20;92.40
12164;DHT22;6145;50.192;10.064;2023-09-18T05:33:44;19.40;92.40
12164;DHT22;6145;50.192;10.064;2023-09-18T05:39:17;19.30;92.70
12164;DHT22;6145;50.192;10.064;2023-09-18T05:41:44;19.30;92.80
12164;DHT22;6145;50.192;10.064;2023-09-18T05:44:11;19.40;92.90
12164;DHT22;6145;50.192;10.064;2023-09-18T05:46:39;19.30;92.90
12164;DHT22;6145;50.192;10.064;2023-09-18T05:49:06;19.20;92.90
12164;DHT22;6145;50.192;10.064;2023-09-18T05:51:32;19.20;93.10
12164;DHT22;6145;50.192;10.064;2023-09-18T05:54:01;19.20;93.20
12164;DHT22;6145;50.192;10.064;2023-09-18T05:56:50;19.20;93.20
12164;DHT22;6145;50.192;10.064;2023-09-18T05:59:16;19.20;93.00
12164;DHT22;6145;50.192;10.064;2023-09-18T06:01:44;19.30;93.20
12164;DHT22;6145;50.192;10.064;2023-09-18T06:04:13;19.30;93.00
12164;DHT22;6145;50.192;10.064;2023-09-18T06:06:40;19.30;93.20
12164;DHT22;6145;50.192;10.064;2023-09-18T06:09:07;19.30;93.10
12164;DHT22;6145;50.192;10.064;2023-09-18T06:11:34;19.30;93.20
12164;DHT22;6145;50.192;10.064;2023-09-18T06:14:02;19.40;93.20
12164;DHT22;6145;50.192;10.064;2023-09-18T06:16:29;19.40;93.40
12164;DHT22;6145;50.192;10.064;2023-09-18T06:18:56;19.40;93.10
12164;DHT22;6145;50.192;10.064;2023-09-18T06:21:25;19.40;92.80
12164;DHT22;6145;50.192;10.064;2023-09-18T06:23:52;19.40;92.90
12164;DHT22;6145;50.192;10.064;2023-09-18T06:26:19;19.40;92.80
12164;DHT22;6145;50.192;10.064;2023-09-18T06:28:49;19.40;92.80
12164;DHT22;6145;50.192;10.064;2023-09-18T06:31:18;19.50;93.20
12164;DHT22;6145;50.192;10.064;2023-09-18T06:33:45;19.40;93.30
12164;DHT22;6145;50.192;10.064;2023-09-18T06:36:13;19.40;93.40
12164;DHT22;6145;50.192;10.064;2023-09-18T06:38:39;19.40;93.50
12164;DHT22;6145;50.192;10.064;2023-09-18T06:41:06;19.40;93.40
12164;DHT22;6145;50.192;10.064;2023-09-18T06:43:33;19.50;93.40
12164;DHT22;6145;50.192;10.064;2023-09-18T06:46:00;19.40;93.60
12164;DHT22;6145;50.192;10.064;2023-09-18T06:48:28;19.50;93.70
12164;DHT22;6145;50.192;10.064;2023-09-18T06:50:57;19.40;93.70
12164;DHT22;6145;50.192;10.064;2023-09-18T06:53:25;19.40;93.60
12164;DHT22;6145;50.192;10.064;2023-09-18T06:55:53;19.40;93.60
12164;DHT22;6145;50.192;10.064;2023-09-18T06:58:20;19.50;93.90
12164;DHT22;6145;50.192;10.064;2023-09-18T07:00:47;19.50;93.70
12164;DHT22;6145;50.192;10.064;2023-09-18T07:03:15;19.40;93.60
12164;DHT22;6145;50.192;10.064;2023-09-18T07:05:44;19.50;93.60
12164;DHT22;6145;50.192;10.064;2023-09-18T07:08:11;19.50;93.60
12164;DHT22;6145;50.192;10.064;2023-09-18T07:10:39;19.50;93.40
12164;DHT22;6145;50.192;10.064;2023-09-18T07:13:06;19.60;93.50
12164;DHT22;6145;50.192;10.064;2023-09-18T07:15:33;19.60;93.30
12164;DHT22;6145;50.192;10.064;2023-09-18T07:18:00;19.70;93.30
12164;DHT22;6145;50.192;10.064;2023-09-18T07:20:26;19.70;93.70
12164;DHT22;6145;50.192;10.064;2023-09-18T07:22:55;19.70;94.00
12164;DHT22;6145;50.192;10.064;2023-09-18T07:25:22;20.20;94.40
12164;DHT22;6145;50.192;10.064;2023-09-18T07:27:48;19.70;94.00
12164;DHT22;6145;50.192;10.064;2023-09-18T07:30:15;19.70;94.00
12164;DHT22;6145;50.192;10.064;2023-09-18T07:32:45;19.80;93.90
12164;DHT22;6145;50.192;10.064;2023-09-18T07:35:13;19.90;93.70
12164;DHT22;6145;50.192;10.064;2023-09-18T07:37:41;19.90;93.80
12164;DHT22;6145;50.192;10.064;2023-09-18T07:40:11;20.00;94.10
12164;DHT22;6145;50.192;10.064;2023-09-18T07:42:38;20.00;94.20
12164;DHT22;6145;50.192;10.064;2023-09-18T07:45:06;20.10;94.30
12164;DHT22;6145;50.192;10.064;2023-09-18T07:47:33;20.10;94.40
12164;DHT22;6145;50.192;10.064;2023-09-18T07:50:00;20.10;94.60
12164;DHT22;6145;50.192;10.064;2023-09-18T07:52:26;20.80;95.10
12164;DHT22;6145;50.192;10.064;2023-09-18T07:54:53;20.10;95.10
12164;DHT22;6145;50.192;10.064;2023-09-18T07:57:21;20.20;95.40
12164;DHT22;6145;50.192;10.064;2023-09-18T07:59:51;20.30;95.50
12164;DHT22;6145;50.192;10.064;2023-09-18T08:02:17;20.30;95.30
12164;DHT22;6145;50.192;10.064;2023-09-18T08:04:44;20.30;95.30
12164;DHT22;6145;50.192;10.064;2023-09-18T08:07:11;20.30;95.30
12164;DHT22;6145;50.192;10.064;2023-09-18T08:09:38;20.40;95.50
12164;DHT22;6145;50.192;10.064;2023-09-18T08:12:06;20.30;95.50
12164;DHT22;6145;50.192;10.064;2023-09-18T08:14:36;20.30;95.60
12164;DHT22;6145;50.192;10.064;2023-09-18T08:17:03;20.40;95.60
12164;DHT22;6145;50.192;10.064;2023-09-18T08:19:31;20.50;95.60
12164;DHT22;6145;50.192;10.064;2023-09-18T08:21:58;20.50;95.50
12164;DHT22;6145;50.192;10.064;2023-09-18T08:24:26;20.60;95.60
12164;DHT22;6145;50.192;10.064;2023-09-18T08:26:53;20.70;95.40
12164;DHT22;6145;50.192;10.064;2023-09-18T08:29:21;20.70;95.50
12164;DHT22;6145;50.192;10.064;2023-09-18T08:31:49;20.90;95.60
12164;DHT22;6145;50.192;10.064;2023-09-18T08:34:17;20.80;95.60
12164;DHT22;6145;50.192;10.064;2023-09-18T08:36:44;20.90;95.80
12164;DHT22;6145;50.192;10.064;2023-09-18T08:39:10;21.00;95.90
12164;DHT22;6145;50.192;10.064;2023-09-18T08:41:40;21.10;95.80
12164;DHT22;6145;50.192;10.064;2023-09-18T08:44:09;21.10;95.80
12164;DHT22;6145;50.192;10.064;2023-09-18T08:46:36;21.50;96.00
12164;DHT22;6145;50.192;10.064;2023-09-18T08:49:07;21.20;96.10
12164;DHT22;6145;50.192;10.064;2023-09-18T08:51:34;21.70;96.60
12164;DHT22;6145;50.192;10.064;2023-09-18T08:54:03;21.40;96.80
12164;DHT22;6145;50.192;10.064;2023-09-18T08:56:31;21.50;96.90
12164;DHT22;6145;50.192;10.064;2023-09-18T08:58:59;21.70;97.10
12164;DHT22;6145;50.192;10.064;2023-09-18T09:01:26;21.80;97.10
12164;DHT22;6145;50.192;10.064;2023-09-18T09:03:53;21.90;96.30
12164;DHT22;6145;50.192;10.064;2023-09-18T09:06:22;22.00;96.10
12164;DHT22;6145;50.192;10.064;2023-09-18T09:08:49;22.10;95.80
12164;DHT22;6145;50.192;10.064;2023-09-18T09:11:16;22.20;95.70
12164;DHT22;6145;50.192;10.064;2023-09-18T09:13:44;22.50;95.00
12164;DHT22;6145;50.192;10.064;2023-09-18T09:16:13;22.40;94.90
12164;DHT22;6145;50.192;10.064;2023-09-18T09:18:48;22.50;95.10
12164;DHT22;6145;50.192;10.064;2023-09-18T09:21:15;22.60;94.90
12164;DHT22;6145;50.192;10.064;2023-09-18T09:23:48;22.70;94.80
12164;DHT22;6145;50.192;10.064;2023-09-18T09:26:19;22.80;93.60
12164;DHT22;6145;50.192;10.064;2023-09-18T09:28:47;22.80;93.20
12164;DHT22;6145;50.192;10.064;2023-09-18T09:31:23;22.90;93.50
12164;DHT22;6145;50.192;10.064;2023-09-18T09:33:54;22.90;93.40
12164;DHT22;6145;50.192;10.064;2023-09-18T09:36:22;23.30;93.50
12164;DHT22;6145;50.192;10.064;2023-09-18T09:38:54;23.10;92.90
12164;DHT22;6145;50.192;10.064;2023-09-18T09:41:21;23.10;92.70
12164;DHT22;6145;50.192;10.064;2023-09-18T09:43:48;23.10;92.80
12164;DHT22;6145;50.192;10.064;2023-09-18T09:46:17;23.10;92.70
12164;DHT22;6145;50.192;10.064;2023-09-18T09:49:04;23.30;92.40
12164;DHT22;6145;50.192;10.064;2023-09-18T09:51:31;23.40;92.40
12164;DHT22;6145;50.192;10.064;2023-09-18T09:54:00;23.90;92.50
12164;DHT22;6145;50.192;10.064;2023-09-18T09:56:44;23.40;92.00
12164;DHT22;6145;50.192;10.064;2023-09-18T09:59:12;23.40;91.70
12164;DHT22;6145;50.192;10.064;2023-09-18T10:01:40;23.30;91.60
12164;DHT22;6145;50.192;10.064;2023-09-18T10:04:09;23.40;91.60
12164;DHT22;6145;50.192;10.064;2023-09-18T10:06:41;23.30;91.70
12164;DHT22;6145;50.192;10.064;2023-09-18T10:09:12;23.40;91.70
12164;DHT22;6145;50.192;10.064;2023-09-18T10:11:43;23.30;91.50
12164;DHT22;6145;50.192;10.064;2023-09-18T10:14:14;23.20;91.50
12164;DHT22;6145;50.192;10.064;2023-09-18T10:16:45;23.20;91.70
12164;DHT22;6145;50.192;10.064;2023-09-18T10:19:19;23.20;92.00
12164;DHT22;6145;50.192;10.064;2023-09-18T10:21:53;23.20;92.00
12164;DHT22;6145;50.192;10.064;2023-09-18T10:24:28;23.20;92.00
12164;DHT22;6145;50.192;10.064;2023-09-18T10:26:59;23.10;92.10
12164;DHT22;6145;50.192;10.064;2023-09-18T10:29:29;23.00;91.90
12164;DHT22;6145;50.192;10.064;2023-09-18T10:31:57;23.00;91.90
12164;DHT22;6145;50.192;10.064;2023-09-18T10:34:25;23.00;92.10
12164;DHT22;6145;50.192;10.064;2023-09-18T10:36:53;23.00;92.10
12164;DHT22;6145;50.192;10.064;2023-09-18T10:39:21;23.00;92.20
12164;DHT22;6145;50.192;10.064;2023-09-18T10:41:52;22.90;92.10
12164;DHT22;6145;50.192;10.064;2023-09-18T10:44:19;23.00;92.00
12164;DHT22;6145;50.192;10.064;2023-09-18T10:46:47;23.00;92.00
12164;DHT22;6145;50.192;10.064;2023-09-18T10:49:15;23.00;92.30
12164;DHT22;6145;50.192;10.064;2023-09-18T10:51:42;23.00;92.20
12164;DHT22;6145;50.192;10.064;2023-09-18T10:54:10;23.00;92.10
12164;DHT22;6145;50.192;10.064;2023-09-18T10:56:39;23.00;92.30
12164;DHT22;6145;50.192;10.064;2023-09-18T10:59:08;22.90;92.40
12164;DHT22;6145;50.192;10.064;2023-09-18T11:01:35;22.90;92.50
12164;DHT22;6145;50.192;10.064;2023-09-18T11:04:05;22.90;92.50
12164;DHT22;6145;50.192;10.064;2023-09-18T11:07:01;22.80;92.60
12164;DHT22;6145;50.192;10.064;2023-09-18T11:09:29;22.80;92.40
12164;DHT22;6145;50.192;10.064;2023-09-18T11:12:03;22.80;92.50
12164;DHT22;6145;50.192;10.064;2023-09-18T11:14:43;22.80;92.50
12164;DHT22;6145;50.192;10.064;2023-09-18T11:17:58;22.70;92.50
12164;DHT22;6145;50.192;10.064;2023-09-18T11:20:28;22.70;92.40
12164;DHT22;6145;50.192;10.064;2023-09-18T11:22:57;22.70;92.70
12164;DHT22;6145;50.192;10.064;2023-09-18T11:25:39;22.50;92.80
12164;DHT22;6145;50.192;10.064;2023-09-18T11:28:13;22.50;93.00
12164;DHT22;6145;50.192;10.064;2023-09-18T11:30:55;22.50;93.10
12164;DHT22;6145;50.192;10.064;2023-09-18T11:33:33;22.50;93.10
12164;DHT22;6145;50.192;10.064;2023-09-18T11:36:04;22.30;93.00
12164;DHT22;6145;50.192;10.064;2023-09-18T11:38:32;22.30;92.80
12164;DHT22;6145;50.192;10.064;2023-09-18T11:41:21;22.20;92.90
12164;DHT22;6145;50.192;10.064;2023-09-18T11:43:48;22.20;93.10
12164;DHT22;6145;50.192;10.064;2023-09-18T11:46:20;22.10;93.20
12164;DHT22;6145;50.192;10.064;2023-09-18T11:48:48;22.10;93.40
12164;DHT22;6145;50.192;10.064;2023-09-18T11:51:22;22.10;93.40
12164;DHT22;6145;50.192;10.064;2023-09-18T11:53:53;22.30;93.60
12164;DHT22;6145;50.192;10.064;2023-09-18T11:56:20;22.20;93.60
12164;DHT22;6145;50.192;10.064;2023-09-18T11:58:48;22.30;93.80
12164;DHT22;6145;50.192;10.064;2023-09-18T12:01:17;22.10;93.90
12164;DHT22;6145;50.192;10.064;2023-09-18T12:03:45;22.10;93.70
12164;DHT22;6145;50.192;10.064;2023-09-18T12:06:17;22.10;93.70
12164;DHT22;6145;50.192;10.064;2023-09-18T12:08:44;22.30;94.10
12164;DHT22;6145;50.192;10.064;2023-09-18T12:11:12;22.10;94.00
12164;DHT22;6145;50.192;10.064;2023-09-18T12:13:42;22.10;94.10
12164;DHT22;6145;50.192;10.064;2023-09-18T12:16:09;22.10;93.90
12164;DHT22;6145;50.192;10.064;2023-09-18T12:18:37;22.20;94.10
12164;DHT22;6145;50.192;10.064;2023-09-18T12:21:15;22.20;94.20
12164;DHT22;6145;50.192;10.064;2023-09-18T12:23:44;22.20;93.60
12164;DHT22;6145;50.192;10.064;2023-09-18T12:26:13;22.20;93.80
12164;DHT22;6145;50.192;10.064;2023-09-18T12:28:40;22.30;93.90
12164;DHT22;6145;50.192;10.064;2023-09-18T12:31:10;22.30;93.90
12164;DHT22;6145;50.192;10.064;2023-09-18T12:33:38;22.40;93.80
12164;DHT22;6145;50.192;10.064;2023-09-18T12:36:06;22.40;93.70
12164;DHT22;6145;50.192;10.064;2023-09-18T12:38:56;22.40;93.50
12164;DHT22;6145;50.192;10.064;2023-09-18T12:41:25;22.50;93.50
12164;DHT22;6145;50.192;10.064;2023-09-18T12:43:53;22.40;93.20
12164;DHT22;6145;50.192;10.064;2023-09-18T12:46:20;22.50;93.10
12164;DHT22;6145;50.192;10.064;2023-09-18T12:48:48;22.50;93.00
12164;DHT22;6145;50.192;10.064;2023-09-18T12:51:15;22.50;93.00
12164;DHT22;6145;50.192;10.064;2023-09-18T12:53:47;22.60;92.90
12164;DHT22;6145;50.192;10.064;2023-09-18T12:56:15;22.60;93.00
12164;DHT22;6145;50.192;10.064;2023-09-18T12:58:43;22.80;92.50
12164;DHT22;6145;50.192;10.064;2023-09-18T13:01:10;22.60;92.50
12164;DHT22;6145;50.192;10.064;2023-09-18T13:03:41;22.50;92.70
12164;DHT22;6145;50.192;10.064;2023-09-18T13:06:15;22.60;92.90
12164;DHT22;6145;50.192;10.064;2023-09-18T13:08:43;22.50;92.70
12164;DHT22;6145;50.192;10.064;2023-09-18T13:11:11;22.50;92.90
12164;DHT22;6145;50.192;10.064;2023-09-18T13:13:43;22.50;92.90
12164;DHT22;6145;50.192;10.064;2023-09-18T13:16:13;23.20;93.10
12164;DHT22;6145;50.192;10.064;2023-09-18T13:18:51;22.60;93.30
12164;DHT22;6145;50.192;10.064;2023-09-18T13:21:19;22.60;92.90
12164;DHT22;6145;50.192;10.064;2023-09-18T13:23:45;22.60;92.70
12164;DHT22;6145;50.192;10.064;2023-09-18T13:26:12;22.60;92.70
12164;DHT22;6145;50.192;10.064;2023-09-18T13:28:40;22.70;92.70
12164;DHT22;6145;50.192;10.064;2023-09-18T13:31:10;22.80;92.20
12164;DHT22;6145;50.192;10.064;2023-09-18T13:33:39;22.70;92.40
12164;DHT22;6145;50.192;10.064;2023-09-18T13:36:09;22.70;91.90
12164;DHT22;6145;50.192;10.064;2023-09-18T13:38:36;22.70;92.10
12164;DHT22;6145;50.192;10.064;2023-09-18T13:41:03;22.60;92.10
12164;DHT22;6145;50.192;10.064;2023-09-18T13:43:30;22.50;92.10
12164;DHT22;6145;50.192;10.064;2023-09-18T13:46:00;22.60;92.70
12164;DHT22;6145;50.192;10.064;2023-09-18T13:48:31;22.60;92.10
12164;DHT22;6145;50.192;10.064;2023-09-18T13:50:59;22.60;92.00
12164;DHT22;6145;50.192;10.064;2023-09-18T13:53:27;22.60;91.90
12164;DHT22;6145;50.192;10.064;2023-09-18T13:55:55;22.70;92.00
12164;DHT22;6145;50.192;10.064;2023-09-18T13:58:23;22.60;91.90
12164;DHT22;6145;50.192;10.064;2023-09-18T14:00:49;22.50;91.40
12164;DHT22;6145;50.192;10.064;2023-09-18T14:03:16;23.10;91.80
12164;DHT22;6145;50.192;10.064;2023-09-18T14:05:45;22.50;91.50
12164;DHT22;6145;50.192;10.064;2023-09-18T14:08:12;22.40;91.40
12164;DHT22;6145;50.192;10.064;2023-09-18T14:10:39;22.50;91.50
12164;DHT22;6145;50.192;10.064;2023-09-18T14:13:05;22.40;91.30
12164;DHT22;6145;50.192;10.064;2023-09-18T14:15:33;22.50;91.40
12164;DHT22;6145;50.192;10.064;2023-09-18T14:17:59;22.50;91.30
12164;DHT22;6145;50.192;10.064;2023-09-18T14:20:26;22.50;91.30
12164;DHT22;6145;50.192;10.064;2023-09-18T14:22:55;22.40;91.20
12164;DHT22;6145;50.192;10.064;2023-09-18T14:25:22;22.40;91.20
12164;DHT22;6145;50.192;10.064;2023-09-18T14:27:49;22.40;91.20
12164;DHT22;6145;50.192;10.064;2023-09-18T14:30:16;22.50;91.30
12164;DHT22;6145;50.192;10.064;2023-09-18T14:32:44;23.20;91.60
12164;DHT22;6145;50.192;10.064;2023-09-18T14:35:11;22.50;91.20
12164;DHT22;6145;50.192;10.064;2023-09-18T14:37:39;22.40;91.20
12164;DHT22;6145;50.192;10.064;2023-09-18T14:40:08;22.40;91.30
12164;DHT22;6145;50.192;10.064;2023-09-18T14:42:52;22.40;91.30
12164;DHT22;6145;50.192;10.064;2023-09-18T14:45:19;22.40;91.40
12164;DHT22;6145;50.192;10.064;2023-09-18T14:47:46;22.40;91.40
12164;DHT22;6145;50.192;10.064;2023-09-18T14:50:13;22.40;91.50
12164;DHT22;6145;50.192;10.064;2023-09-18T14:52:40;22.40;91.40
12164;DHT22;6145;50.192;10.064;2023-09-18T14:55:08;22.40;91.40
12164;DHT22;6145;50.192;10.064;2023-09-18T14:57:35;22.40;91.30
12164;DHT22;6145;50.192;10.064;2023-09-18T15:00:03;22.40;91.50
12164;DHT22;6145;50.192;10.064;2023-09-18T15:02:31;22.40;91.60
12164;DHT22;6145;50.192;10.064;2023-09-18T15:05:00;22.40;91.50
12164;DHT22;6145;50.192;10.064;2023-09-18T15:07:27;22.40;91.50
12164;DHT22;6145;50.192;10.064;2023-09-18T15:09:54;22.40;91.00
12164;DHT22;6145;50.192;10.064;2023-09-18T15:12:22;22.50;90.90
12164;DHT22;6145;50.192;10.064;2023-09-18T15:14:49;22.40;90.90
12164;DHT22;6145;50.192;10.064;2023-09-18T15:24:14;22.50;90.80
12164;DHT22;6145;50.192;10.064;2023-09-18T15:26:41;22.50;90.70
12164;DHT22;6145;50.192;10.064;2023-09-18T15:29:09;22.40;90.70
12164;DHT22;6145;50.192;10.064;2023-09-18T15:31:37;22.40;90.70
12164;DHT22;6145;50.192;10.064;2023-09-18T15:34:06;22.50;90.70
12164;DHT22;6145;50.192;10.064;2023-09-18T15:36:33;22.50;90.70
12164;DHT22;6145;50.192;10.064;2023-09-18T15:39:00;22.40;90.60
12164;DHT22;6145;50.192;10.064;2023-09-18T15:41:29;22.50;90.60
12164;DHT22;6145;50.192;10.064;2023-09-18T15:43:56;22.60;90.60
12164;DHT22;6145;50.192;10.064;2023-09-18T15:46:24;22.40;90.10
12164;DHT22;6145;50.192;10.064;2023-09-18T15:48:51;22.50;90.20
12164;DHT22;6145;50.192;10.064;2023-09-18T15:51:17;22.70;90.30
12164;DHT22;6145;50.192;10.064;2023-09-18T15:53:44;22.40;90.20
12164;DHT22;6145;50.192;10.064;2023-09-18T15:56:11;22.40;90.20
12164;DHT22;6145;50.192;10.064;2023-09-18T15:58:38;22.40;90.20
12164;DHT22;6145;50.192;10.064;2023-09-18T16:08:03;22.30;90.20
12164;DHT22;6145;50.192;10.064;2023-09-18T16:10:30;22.30;90.30
12164;DHT22;6145;50.192;10.064;2023-09-18T16:16:12;22.30;90.30
12164;DHT22;6145;50.192;10.064;2023-09-18T16:18:40;22.30;90.30
12164;DHT22;6145;50.192;10.064;2023-09-18T16:21:07;22.20;90.20
12164;DHT22;6145;50.192;10.064;2023-09-18T16:29:50;22.20;90.20
12164;DHT22;6145;50.192;10.064;2023-09-18T16:32:20;22.20;90.20
12164;DHT22;6145;50.192;10.064;2023-09-18T16:34:47;22.20;90.10
12164;DHT22;6145;50.192;10.064;2023-09-18T16:37:15;22.20;90.00
12164;DHT22;6145;50.192;10.064;2023-09-18T16:39:42;22.40;90.00
12164;DHT22;6145;50.192;10.064;2023-09-18T16:42:09;22.10;89.60
12164;DHT22;6145;50.192;10.064;2023-09-18T16:44:36;22.00;89.60
12164;DHT22;6145;50.192;10.064;2023-09-18T16:47:06;21.90;89.90
12164;DHT22;6145;50.192;10.064;2023-09-18T16:49:33;21.90;89.80
12164;DHT22;6145;50.192;10.064;2023-09-18T16:52:01;21.90;89.90
12164;DHT22;6145;50.192;10.064;2023-09-18T16:54:30;21.90;90.00
12164;DHT22;6145;50.192;10.064;2023-09-18T16:56:56;21.90;90.00
12164;DHT22;6145;50.192;10.064;2023-09-18T16:59:23;21.90;90.10
12164;DHT22;6145;50.192;10.064;2023-09-18T17:01:53;21.90;90.10
12164;DHT22;6145;50.192;10.064;2023-09-18T17:04:21;21.90;90.20
12164;DHT22;6145;50.192;10.064;2023-09-18T17:06:48;22.00;90.10
12164;DHT22;6145;50.192;10.064;2023-09-18T17:09:15;21.80;90.00
12164;DHT22;6145;50.192;10.064;2023-09-18T17:11:43;21.80;90.10
12164;DHT22;6145;50.192;10.064;2023-09-18T17:14:10;21.80;90.00
12164;DHT22;6145;50.192;10.064;2023-09-18T17:16:37;21.80;90.00
12164;DHT22;6145;50.192;10.064;2023-09-18T17:19:04;21.80;90.00
12164;DHT22;6145;50.192;10.064;2023-09-18T17:21:32;21.70;89.90
12164;DHT22;6145;50.192;10.064;2023-09-18T17:23:59;21.70;90.00
12164;DHT22;6145;50.192;10.064;2023-09-18T17:26:26;21.60;89.80
12164;DHT22;6145;50.192;10.064;2023-09-18T17:28:53;21.60;89.80
12164;DHT22;6145;50.192;10.064;2023-09-18T17:31:21;21.50;90.00
12164;DHT22;6145;50.192;10.064;2023-09-18T17:33:47;21.60;90.00
12164;DHT22;6145;50.192;10.064;2023-09-18T17:36:16;21.50;90.00
12164;DHT22;6145;50.192;10.064;2023-09-18T17:38:44;21.50;90.00
12164;DHT22;6145;50.192;10.064;2023-09-18T17:41:14;21.50;90.30
12164;DHT22;6145;50.192;10.064;2023-09-18T17:43:41;21.50;90.00
12164;DHT22;6145;50.192;10.064;2023-09-18T17:46:08;21.60;89.80
12164;DHT22;6145;50.192;10.064;2023-09-18T17:48:35;21.50;89.70
12164;DHT22;6145;50.192;10.064;2023-09-18T17:51:02;21.60;89.90
12164;DHT22;6145;50.192;10.064;2023-09-18T20:48:43;19.80;92.00
12164;DHT22;6145;50.192;10.064;2023-09-18T20:51:10;19.80;92.00
12164;DHT22;6145;50.192;10.064;2023-09-18T20:53:37;19.80;92.00
12164;DHT22;6145;50.192;10.064;2023-09-18T20:56:04;19.90;91.90
12164;DHT22;6145;50.192;10.064;2023-09-18T20:58:30;19.80;91.90
12164;DHT22;6145;50.192;10.064;2023-09-18T21:00:57;20.50;92.10
12164;DHT22;6145;50.192;10.064;2023-09-18T21:03:24;20.30;92.10
12164;DHT22;6145;50.192;10.064;2023-09-18T21:12:00;19.80;91.70
12164;DHT22;6145;50.192;10.064;2023-09-18T21:14:28;19.80;91.70
12164;DHT22;6145;50.192;10.064;2023-09-18T21:16:56;19.80;91.70
12164;DHT22;6145;50.192;10.064;2023-09-18T21:19:23;19.80;91.70
12164;DHT22;6145;50.192;10.064;2023-09-18T22:07:50;19.20;92.30
12164;DHT22;6145;50.192;10.064;2023-09-18T22:10:17;19.10;92.30
12164;DHT22;6145;50.192;10.064;2023-09-18T22:12:45;19.10;92.30
12164;DHT22;6145;50.192;10.064;2023-09-18T22:15:13;19.10;92.30
12164;DHT22;6145;50.192;10.064;2023-09-18T22:17:40;19.10;92.30
12164;DHT22;6145;50.192;10.064;2023-09-18T22:30:38;19.10;92.40
12164;DHT22;6145;50.192;10.064;2023-09-18T22:33:06;19.10;92.40
12164;DHT22;6145;50.192;10.064;2023-09-18T22:35:33;19.10;92.30
12164;DHT22;6145;50.192;10.064;2023-09-18T22:38:05;19.10;92.20
12164;DHT22;6145;50.192;10.064;2023-09-18T23:38:07;18.60;92.00
